sensor_id;sensor_type;location;lat;lon;timestamp;pressure;altitude;pressure_sealevel;temperature;humidity
7586;BME280;12459;42.646;23.292;2023-04-28T00:04:59;93876.34;;;9.04;56.23
7586;BME280;12459;42.646;23.292;2023-04-28T00:20:01;93756.22;;;8.04;56.42
7586;BME280;12459;42.646;23.292;2023-04-28T00:35:03;93915.28;;;9.01;56.71
7586;BME280;12459;42.646;23.292;2023-04-28T00:50:05;93946.59;;;8.93;56.55
7586;BME280;12459;42.646;23.292;2023-04-28T01:05:08;93952.72;;;8.80;56.60
7586;BME280;12459;42.646;23.292;2023-04-28T01:20:11;93891.97;;;8.16;56.35
7586;BME280;12459;42.646;23.292;2023-04-28T01:35:12;93808.41;;;7.69;56.35
7586;BME280;12459;42.646;23.292;2023-04-28T01:50:14;93843.44;;;7.61;57.21
7586;BME280;12459;42.646;23.292;2023-04-28T02:05:16;93933.25;;;8.51;57.82
7586;BME280;12459;42.646;23.292;2023-04-28T02:20:33;93945.06;;;8.50;57.62
7586;BME280;12459;42.646;23.292;2023-04-28T02:35:35;93626.31;;;6.04;58.41
7586;BME280;12459;42.646;23.292;2023-04-28T02:50:37;93513.75;;;5.17;58.07
7586;BME280;12459;42.646;23.292;2023-04-28T03:05:38;93934.66;;;8.09;57.65
7586;BME280;12459;42.646;23.292;2023-04-28T03:20:40;94017.16;;;8.36;56.81
7586;BME280;12459;42.646;23.292;2023-04-28T03:35:42;94032.69;;;8.19;56.47
7586;BME280;12459;42.646;23.292;2023-04-28T03:50:44;94047.25;;;8.32;56.25
7586;BME280;12459;42.646;23.292;2023-04-28T04:05:46;93923.38;;;7.47;56.59
7586;BME280;12459;42.646;23.292;2023-04-28T04:20:48;94085.50;;;8.61;55.36
7586;BME280;12459;42.646;23.292;2023-04-28T04:35:51;94058.84;;;8.83;55.18
7586;BME280;12459;42.646;23.292;2023-04-28T04:50:52;94001.94;;;9.25;55.56
7586;BME280;12459;42.646;23.292;2023-04-28T05:05:54;94005.94;;;10.18;54.21
7586;BME280;12459;42.646;23.292;2023-04-28T05:20:56;93856.75;;;9.42;53.64
7586;BME280;12459;42.646;23.292;2023-04-28T05:35:58;93853.38;;;10.04;53.58
7586;BME280;12459;42.646;23.292;2023-04-28T05:51:00;94049.00;;;11.74;53.79
7586;BME280;12459;42.646;23.292;2023-04-28T06:06:02;94081.53;;;12.21;51.78
7586;BME280;12459;42.646;23.292;2023-04-28T06:21:07;93727.53;;;8.79;52.00
7586;BME280;12459;42.646;23.292;2023-04-28T06:36:09;94108.63;;;11.51;50.55
7586;BME280;12459;42.646;23.292;2023-04-28T06:51:14;94075.38;;;10.75;50.08
7586;BME280;12459;42.646;23.292;2023-04-28T07:06:16;93846.47;;;9.37;51.93
7586;BME280;12459;42.646;23.292;2023-04-28T07:21:18;94023.41;;;10.55;52.53
7586;BME280;12459;42.646;23.292;2023-04-28T07:36:20;93692.38;;;9.57;48.93
7586;BME280;12459;42.646;23.292;2023-04-28T07:51:22;93763.41;;;11.00;48.30
7586;BME280;12459;42.646;23.292;2023-04-28T08:06:24;94021.31;;;13.06;47.92
7586;BME280;12459;42.646;23.292;2023-04-28T08:21:26;93631.06;;;10.15;47.64
7586;BME280;12459;42.646;23.292;2023-04-28T08:36:28;93966.94;;;13.18;46.99
7586;BME280;12459;42.646;23.292;2023-04-28T08:51:34;93675.34;;;11.25;47.23
7586;BME280;12459;42.646;23.292;2023-04-28T09:06:42;94088.25;;;14.24;46.29
7586;BME280;12459;42.646;23.292;2023-04-28T09:21:47;94014.22;;;14.29;45.37
7586;BME280;12459;42.646;23.292;2023-04-28T09:36:50;93916.38;;;13.72;46.21
7586;BME280;12459;42.646;23.292;2023-04-28T10:08:51;93960.72;;;15.16;44.54
7586;BME280;12459;42.646;23.292;2023-04-28T10:24:28;93957.38;;;15.57;42.18
7586;BME280;12459;42.646;23.292;2023-04-28T10:39:33;93856.44;;;15.22;41.28
7586;BME280;12459;42.646;23.292;2023-04-28T10:54:35;93607.56;;;13.98;43.73
7586;BME280;12459;42.646;23.292;2023-04-28T11:24:40;93824.16;;;16.40;42.16
7586;BME280;12459;42.646;23.292;2023-04-28T11:39:42;93701.88;;;15.98;40.48
7586;BME280;12459;42.646;23.292;2023-04-28T11:54:43;93894.06;;;17.05;40.59
7586;BME280;12459;42.646;23.292;2023-04-28T12:25:09;93862.19;;;17.21;39.86
7586;BME280;12459;42.646;23.292;2023-04-28T12:40:12;93689.50;;;15.46;40.73
7586;BME280;12459;42.646;23.292;2023-04-28T12:55:15;93803.28;;;16.53;37.15
7586;BME280;12459;42.646;23.292;2023-04-28T13:10:17;93817.19;;;17.02;39.48
7586;BME280;12459;42.646;23.292;2023-04-28T13:25:19;93757.69;;;16.64;39.57
7586;BME280;12459;42.646;23.292;2023-04-28T13:40:21;93680.53;;;16.25;37.93
7586;BME280;12459;42.646;23.292;2023-04-28T13:55:23;93538.84;;;14.90;38.92
7586;BME280;12459;42.646;23.292;2023-04-28T14:10:28;93773.53;;;16.40;37.07
7586;BME280;12459;42.646;23.292;2023-04-28T14:25:31;93674.53;;;15.57;39.71
7586;BME280;12459;42.646;23.292;2023-04-28T14:40:32;93608.38;;;15.37;38.96
7586;BME280;12459;42.646;23.292;2023-04-28T14:55:34;93614.97;;;15.48;38.56
7586;BME280;12459;42.646;23.292;2023-04-28T15:10:37;93704.16;;;15.86;38.81
7586;BME280;12459;42.646;23.292;2023-04-28T15:25:39;93678.13;;;15.67;40.36
7586;BME280;12459;42.646;23.292;2023-04-28T15:40:41;93624.56;;;15.11;39.74
7586;BME280;12459;42.646;23.292;2023-04-28T15:55:44;93737.78;;;15.85;40.50
7586;BME280;12459;42.646;23.292;2023-04-28T16:10:46;93536.00;;;14.39;39.66
7586;BME280;12459;42.646;23.292;2023-04-28T16:25:47;93639.34;;;14.94;40.28
7586;BME280;12459;42.646;23.292;2023-04-28T16:40:51;93532.22;;;13.95;40.61
7586;BME280;12459;42.646;23.292;2023-04-28T16:55:52;93759.53;;;15.11;41.72
7586;BME280;12459;42.646;23.292;2023-04-28T17:10:54;93768.03;;;14.81;44.32
7586;BME280;12459;42.646;23.292;2023-04-28T17:25:55;93443.72;;;11.98;45.48
7586;BME280;12459;42.646;23.292;2023-04-28T17:40:57;93641.28;;;13.02;45.27
7586;BME280;12459;42.646;23.292;2023-04-28T17:55:59;93756.75;;;13.32;45.52
7586;BME280;12459;42.646;23.292;2023-04-28T18:11:02;93820.06;;;13.60;43.99
7586;BME280;12459;42.646;23.292;2023-04-28T18:26:04;93555.88;;;11.44;44.60
7586;BME280;12459;42.646;23.292;2023-04-28T18:41:13;93741.13;;;12.18;47.41
7586;BME280;12459;42.646;23.292;2023-04-28T18:56:16;93666.50;;;11.28;48.24
7586;BME280;12459;42.646;23.292;2023-04-28T19:11:18;93742.94;;;11.43;49.48
7586;BME280;12459;42.646;23.292;2023-04-28T19:46:42;93794.34;;;11.42;50.89
7586;BME280;12459;42.646;23.292;2023-04-28T20:01:46;93859.63;;;11.66;52.39
7586;BME280;12459;42.646;23.292;2023-04-28T20:16:48;93728.31;;;10.53;54.99
7586;BME280;12459;42.646;23.292;2023-04-28T20:31:50;93853.31;;;11.11;54.08
7586;BME280;12459;42.646;23.292;2023-04-28T20:46:52;93844.13;;;10.71;56.78
7586;BME280;12459;42.646;23.292;2023-04-28T21:01:54;93490.69;;;8.55;56.50
7586;BME280;12459;42.646;23.292;2023-04-28T21:16:55;93857.56;;;10.68;57.23
7586;BME280;12459;42.646;23.292;2023-04-28T21:31:57;93700.91;;;9.38;58.77
7586;BME280;12459;42.646;23.292;2023-04-28T21:46:59;93824.13;;;10.35;58.57
7586;BME280;12459;42.646;23.292;2023-04-28T22:02:01;93856.69;;;10.30;57.92
7586;BME280;12459;42.646;23.292;2023-04-28T22:17:03;93811.22;;;10.22;58.05
7586;BME280;12459;42.646;23.292;2023-04-28T22:32:05;93838.44;;;10.10;60.50
